Andrews, SC

9:58 PM EDT on August 21, 2014 (GMT -0400)
Spring Gully | Change Station
CLOSE
Current Station
Personal Weather Station
Location: Georgetown, SC
Elevation: 20 ft
Nearby Weather Stations

Elev 20 ft 33.38 °N, 79.42 °W | Updated 9 minutes ago

Clear
Clear
79.5 °F
Feels Like 85 °F
N
0.0
Wind Variable Wind from SE
Gusts 0.0 mph

Today
High -- | Low -- °F
--% Chance of Precip.
Yesterday
High -- | Low -- °F
Precip. -- in
6:44 AM 7:57 PM
Waning Crescent, 11% visible
Pressure 30.06 in
Visibility 10.0 miles
Clouds Clear
Heat Index 85 °F
Dew Point 77 °F
Humidity 92%
Rainfall 0.00 in
Snow Depth Not available.
UV 0 out of 12
Pollen 7.60 out of 12
Air Quality Not available.
Flu Activity Not available.
METAR KGGE 220155Z AUTO 00000KT 10SM CLR 26/24 A3006 RMK AO2

More Conditions Fewer Conditions

Pressure 30.06 in
Visibility 10.0 miles
Clouds Clear
Heat Index 85 °F
Dew Point 77 °F
Humidity 92%
Rainfall 0.00 in
Snow Depth Not available.
UV 0 out of 12
Pollen 7.60 out of 12
Air Quality Not available.
Flu Activity Not available.
METAR KGGE 220155Z AUTO 00000KT 10SM CLR 26/24 A3006 RMK AO2

More Conditions Fewer Conditions

10-Day Weather Forecast

Almanac

Astronomy

Aug. 21, 2014 Rise Set
Actual Time 6:44 AM EDT 7:57 PM EDT
Civil Twilight 6:18 AM EDT 8:23 PM EDT
Nautical Twilight 5:48 AM EDT 8:53 PM EDT
Astronomical Twilight 5:16 AM EDT 9:25 PM EDT
Moon 3:18 AM EDT (8/21) 5:20 PM EDT (8/21)
Length of Visible Light 14h 04m
Length of Day
13h 12m
Tomorrow will be 1m 53s shorter.
Waning Crescent, 11% of the Moon is Illuminated
Today
Waning Crescent
Aug 25
New
Sep 2
First Quarter
Sep 8
Full
Sep 15
Last Quarter

Today's Extremes

State Highs State Lows

Community

WunderPhotos

Upload Photos

1,746,105 photos uploaded!

WunderBlogs® & News

Nearby

Snow Depth

Station Depth Elevation
No new snow has been reported.

Earthquake Activity

City Distance Mag. Time & Date
No recent earthquake activity has been reported nearby.
Minimum magnitude displayed is 2.5.

Coastal Water Temperatures

Place Temperature
Springmaid Pier, SC 84.9 °F

Nearby Weather Stations